createdAt,value
2017-12-10T00:02:27.064Z,100105.37
2017-12-10T00:04:55.025Z,100106.26
2017-12-10T00:07:22.638Z,100099.41
2017-12-10T00:09:50.251Z,100103.62
2017-12-10T00:12:17.877Z,100103.71
2017-12-10T00:14:45.780Z,100101.01
2017-12-10T00:17:13.410Z,100097.02
2017-12-10T00:19:41.254Z,100102.18
2017-12-10T00:22:08.853Z,100097.27
2017-12-10T00:24:36.475Z,100099.13
2017-12-10T00:27:04.070Z,100092.43
2017-12-10T00:29:31.714Z,100088.41
2017-12-10T00:31:59.309Z,100094.08
2017-12-10T00:34:26.918Z,100092.97
2017-12-10T00:36:54.557Z,100087.23
2017-12-10T00:39:22.141Z,100091.33
2017-12-10T00:41:49.777Z,100085.72
2017-12-10T00:44:17.392Z,100088.30
2017-12-10T00:46:44.996Z,100086.88
2017-12-10T00:49:12.602Z,100091.62
2017-12-10T00:51:40.186Z,100095.70
2017-12-10T00:54:08.213Z,100090.48
2017-12-10T00:56:35.815Z,100085.92
2017-12-10T00:59:03.409Z,100079.91
2017-12-10T01:01:31.040Z,100079.30
2017-12-10T01:03:58.941Z,100083.72
2017-12-10T01:06:29.265Z,100081.62
2017-12-10T01:08:56.897Z,100076.22
2017-12-10T01:11:24.489Z,100073.05
2017-12-10T01:13:52.138Z,100077.07
2017-12-10T01:16:19.727Z,100073.24
2017-12-10T01:18:47.356Z,100080.53
2017-12-10T01:21:14.951Z,100076.64
2017-12-10T01:23:42.537Z,100068.56
2017-12-10T01:26:10.172Z,100071.66
2017-12-10T01:28:37.841Z,100077.55
2017-12-10T01:31:05.469Z,100062.93
2017-12-10T01:33:33.056Z,100060.78
2017-12-10T01:36:00.638Z,100056.70
2017-12-10T01:38:28.252Z,100050.34
2017-12-10T01:40:55.842Z,100052.69
2017-12-10T01:43:23.476Z,100056.91
2017-12-10T01:45:51.301Z,100049.72
2017-12-10T01:48:18.908Z,100054.30
2017-12-10T01:50:46.521Z,100058.31
2017-12-10T01:53:14.127Z,100050.35
2017-12-10T01:55:41.748Z,100044.73
2017-12-10T01:58:09.678Z,100043.69
2017-12-10T02:00:37.262Z,100038.59
2017-12-10T02:03:04.876Z,100038.43
2017-12-10T02:05:32.571Z,100032.61
2017-12-10T02:08:00.233Z,100034.99
2017-12-10T02:10:27.829Z,100032.64
2017-12-10T02:12:55.411Z,100031.38
2017-12-10T02:15:23.029Z,100026.97
2017-12-10T02:17:50.645Z,100022.72
2017-12-10T02:20:18.322Z,100014.28
2017-12-10T02:22:45.948Z,100011.04
2017-12-10T02:25:13.556Z,100005.09
2017-12-10T02:27:41.189Z,100006.75
2017-12-10T02:30:08.797Z,99999.83
2017-12-10T02:32:36.440Z,99999.62
2017-12-10T02:35:04.331Z,99995.52
2017-12-10T02:37:31.928Z,99987.66
2017-12-10T02:39:59.553Z,99994.69
2017-12-10T02:42:27.152Z,99988.77
2017-12-10T02:44:54.773Z,99981.27
2017-12-10T02:47:22.504Z,99973.67
2017-12-10T02:49:50.145Z,99968.30
2017-12-10T02:52:17.796Z,99965.03
2017-12-10T02:54:45.399Z,99962.05
2017-12-10T02:57:13.016Z,99959.14
2017-12-10T02:59:40.955Z,99961.00
2017-12-10T03:02:08.817Z,99949.32
2017-12-10T03:04:36.435Z,99944.27
2017-12-10T03:07:04.034Z,99940.73
2017-12-10T03:09:31.656Z,99945.11
2017-12-10T03:11:59.235Z,99939.28
2017-12-10T03:14:26.824Z,99939.85
2017-12-10T03:16:54.457Z,99937.84
2017-12-10T03:19:22.055Z,99939.23
2017-12-10T03:21:49.713Z,99942.54
2017-12-10T03:24:17.363Z,99936.60
2017-12-10T03:26:44.942Z,99941.66
2017-12-10T03:29:12.542Z,99933.28
2017-12-10T03:31:40.146Z,99932.51
2017-12-10T03:34:08.252Z,99924.70
2017-12-10T03:36:35.835Z,99920.97
2017-12-10T03:39:03.421Z,99911.20
2017-12-10T03:41:32.809Z,99903.97
2017-12-10T03:44:00.409Z,99901.80
2017-12-10T03:46:28.295Z,99906.09
2017-12-10T03:48:55.932Z,99892.77
2017-12-10T03:51:23.523Z,99896.91
2017-12-10T03:53:51.481Z,99890.67
2017-12-10T03:56:19.074Z,99895.52
2017-12-10T03:58:46.712Z,99884.33
2017-12-10T04:01:14.295Z,99874.77
2017-12-10T04:03:41.881Z,99877.61
2017-12-10T04:06:09.498Z,99880.59
2017-12-10T04:08:37.097Z,99877.84
2017-12-10T04:11:04.737Z,99870.78
2017-12-10T04:13:32.333Z,99879.92
2017-12-10T04:15:59.957Z,99880.39
2017-12-10T04:18:27.582Z,99881.77
2017-12-10T04:20:55.204Z,99877.61
2017-12-10T04:23:22.837Z,99872.14
2017-12-10T04:25:50.467Z,99872.72
2017-12-10T04:30:51.863Z,99871.33
2017-12-10T04:33:19.464Z,99867.89
2017-12-10T04:35:47.092Z,99869.52
2017-12-10T04:38:14.735Z,99865.86
2017-12-10T04:40:42.618Z,99858.27
2017-12-10T04:43:10.213Z,99861.11
2017-12-10T04:45:38.146Z,99864.98
2017-12-10T04:48:05.761Z,99859.59
2017-12-10T04:50:33.331Z,99856.45
2017-12-10T04:53:00.912Z,99854.59
2017-12-10T04:55:28.748Z,99850.31
2017-12-10T04:57:56.331Z,99849.41
2017-12-10T05:00:23.948Z,99840.70
2017-12-10T05:02:51.532Z,99836.62
2017-12-10T05:05:19.117Z,99842.14
2017-12-10T05:07:47.112Z,99836.49
2017-12-10T05:10:14.990Z,99832.77
2017-12-10T05:12:42.601Z,99823.15
2017-12-10T05:15:10.215Z,99823.91
2017-12-10T05:17:38.082Z,99815.34
2017-12-10T05:20:05.743Z,99814.11
2017-12-10T05:22:33.341Z,99802.77
2017-12-10T05:25:00.985Z,99806.90
2017-12-10T05:27:28.563Z,99799.17
2017-12-10T05:29:56.157Z,99794.53
2017-12-10T05:32:23.764Z,99788.73
2017-12-10T05:34:51.343Z,99788.73
2017-12-10T05:37:18.974Z,99778.98
2017-12-10T05:39:46.568Z,99779.90
2017-12-10T05:42:14.162Z,99784.25
2017-12-10T05:44:41.769Z,99777.12
2017-12-10T05:47:09.348Z,99774.97
2017-12-10T05:49:37.284Z,99774.70
2017-12-10T05:52:04.874Z,99774.28
2017-12-10T05:54:32.470Z,99764.75
2017-12-10T05:57:00.380Z,99761.62
2017-12-10T05:59:27.963Z,99755.53
2017-12-10T06:01:55.571Z,99756.09
2017-12-10T06:04:23.153Z,99756.19
2017-12-10T06:06:50.750Z,99750.50
2017-12-10T06:09:18.692Z,99749.67
2017-12-10T06:11:46.564Z,99742.61
2017-12-10T06:14:14.234Z,99735.79
2017-12-10T06:16:41.821Z,99728.30
2017-12-10T06:19:09.413Z,99719.67
2017-12-10T06:21:37.025Z,99710.56
2017-12-10T06:24:04.616Z,99703.80
2017-12-10T06:26:32.227Z,99708.56
2017-12-10T06:28:59.792Z,99700.42
2017-12-10T06:31:27.372Z,99691.42
2017-12-10T06:33:55.321Z,99697.92
2017-12-10T06:36:22.913Z,99693.92
2017-12-10T06:38:50.752Z,99687.64
2017-12-10T06:41:18.356Z,99684.87
2017-12-10T06:43:45.951Z,99683.90
2017-12-10T06:46:13.530Z,99684.69
2017-12-10T06:48:41.515Z,99668.97
2017-12-10T06:51:09.108Z,99665.03
2017-12-10T06:53:36.698Z,99666.05
2017-12-10T06:56:04.400Z,99671.73
2017-12-10T06:58:31.989Z,99657.85
2017-12-10T07:00:59.628Z,99652.24
2017-12-10T07:03:27.213Z,99658.58
2017-12-10T07:05:54.823Z,99657.50
2017-12-10T07:08:22.426Z,99652.50
2017-12-10T07:10:50.272Z,99648.47
2017-12-10T07:13:17.902Z,99644.95
2017-12-10T07:15:45.798Z,99635.55
2017-12-10T07:18:13.391Z,99637.06
2017-12-10T07:20:41.067Z,99628.02
2017-12-10T07:23:08.683Z,99629.99
2017-12-10T07:25:36.658Z,99625.64
2017-12-10T07:28:04.330Z,99625.45
2017-12-10T07:30:32.184Z,99609.80
2017-12-10T07:33:00.065Z,99602.01
2017-12-10T07:35:27.709Z,99598.76
2017-12-10T07:37:55.337Z,99593.85
2017-12-10T07:40:22.912Z,99589.70
2017-12-10T07:42:50.476Z,99588.13
2017-12-10T07:45:18.095Z,99583.27
2017-12-10T07:47:45.677Z,99585.53
2017-12-10T07:50:13.622Z,99583.49
2017-12-10T07:52:41.281Z,99573.47
2017-12-10T07:55:09.128Z,99576.53
2017-12-10T07:57:36.774Z,99570.06
2017-12-10T08:00:04.657Z,99567.05
2017-12-10T08:02:32.299Z,99564.45
2017-12-10T08:04:59.883Z,99551.76
2017-12-10T08:07:27.469Z,99558.65
2017-12-10T08:09:55.094Z,99551.41
2017-12-10T08:12:22.693Z,99550.02
2017-12-10T08:14:50.304Z,99553.31
2017-12-10T08:17:18.193Z,99551.20
2017-12-10T08:19:45.868Z,99544.99
2017-12-10T08:22:13.489Z,99544.34
2017-12-10T08:24:41.120Z,99537.84
2017-12-10T08:27:08.722Z,99525.75
2017-12-10T08:29:36.292Z,99523.20
2017-12-10T08:32:04.174Z,99525.05
2017-12-10T08:34:32.042Z,99526.45
2017-12-10T08:36:59.639Z,99518.81
2017-12-10T08:39:27.251Z,99516.36
2017-12-10T08:41:55.143Z,99505.89
2017-12-10T08:44:22.772Z,99503.04
2017-12-10T08:46:50.356Z,99499.83
2017-12-10T08:49:17.946Z,99498.36
2017-12-10T08:51:45.609Z,99494.03
2017-12-10T08:54:13.199Z,99496.59
2017-12-10T08:56:40.870Z,99484.89
2017-12-10T08:59:08.785Z,99475.13
2017-12-10T09:01:36.358Z,99467.85
2017-12-10T09:04:03.961Z,99466.69
2017-12-10T09:06:31.601Z,99456.31
2017-12-10T09:08:59.222Z,99440.80
2017-12-10T09:11:26.857Z,99439.80
2017-12-10T09:13:54.463Z,99448.15
2017-12-10T09:16:22.067Z,99437.41
2017-12-10T09:18:49.680Z,99438.27
2017-12-10T09:21:17.300Z,99419.59
2017-12-10T09:23:45.301Z,99422.41
2017-12-10T09:26:12.921Z,99416.64
2017-12-10T09:28:40.579Z,99401.70
2017-12-10T09:31:08.163Z,99402.11
2017-12-10T09:33:36.024Z,99403.90
2017-12-10T09:36:03.604Z,99407.86
2017-12-10T09:38:31.238Z,99397.11
2017-12-10T09:40:58.889Z,99378.80
2017-12-10T09:43:26.576Z,99380.87
2017-12-10T09:45:54.342Z,99365.59
2017-12-10T09:48:21.937Z,99364.89
2017-12-10T09:50:49.544Z,99357.99
2017-12-10T09:53:17.164Z,99347.19
2017-12-10T09:55:45.023Z,99339.25
2017-12-10T09:58:12.997Z,99337.98
2017-12-10T10:00:40.567Z,99331.69
2017-12-10T10:03:08.160Z,99329.57
2017-12-10T10:05:35.780Z,99310.88
2017-12-10T10:08:03.383Z,99307.02
2017-12-10T10:10:31.001Z,99303.95
2017-12-10T10:12:58.576Z,99294.71
2017-12-10T10:15:26.199Z,99287.52
2017-12-10T10:17:53.814Z,99274.98
2017-12-10T10:20:21.396Z,99265.38
2017-12-10T10:22:49.037Z,99257.95
2017-12-10T10:25:16.659Z,99248.38
2017-12-10T10:27:44.256Z,99233.47
2017-12-10T10:30:11.882Z,99228.09
2017-12-10T10:32:39.460Z,99220.17
2017-12-10T10:35:07.091Z,99213.91
2017-12-10T10:37:35.108Z,99206.88
2017-12-10T10:40:02.754Z,99195.22
2017-12-10T10:42:30.364Z,99185.39
2017-12-10T10:44:57.955Z,99172.41
2017-12-10T10:47:25.560Z,99171.03
2017-12-10T10:49:53.213Z,99170.18
2017-12-10T10:52:20.872Z,99151.89
2017-12-10T10:54:48.468Z,99145.71
2017-12-10T10:57:16.079Z,99132.48
2017-12-10T10:59:43.690Z,99132.71
2017-12-10T11:02:11.282Z,99121.05
2017-12-10T11:04:38.913Z,99104.95
2017-12-10T11:07:06.491Z,99089.81
2017-12-10T11:09:34.103Z,99085.70
2017-12-10T11:12:02.067Z,99079.52
2017-12-10T11:14:29.635Z,99076.89
2017-12-10T11:16:57.299Z,99075.77
2017-12-10T11:19:24.905Z,99064.37
2017-12-10T11:21:52.543Z,99061.77
2017-12-10T11:24:20.169Z,99054.45
2017-12-10T11:26:47.764Z,99063.39
2017-12-10T11:29:15.814Z,99061.86
2017-12-10T11:31:43.396Z,99042.85
2017-12-10T11:34:10.978Z,99023.45
2017-12-10T11:36:38.576Z,99019.86
2017-12-10T11:39:06.202Z,99008.69
2017-12-10T11:41:33.828Z,98996.93
2017-12-10T11:44:01.403Z,98990.44
2017-12-10T11:46:28.984Z,98973.16
2017-12-10T11:48:56.596Z,98964.34
2017-12-10T11:51:24.188Z,98963.11
2017-12-10T11:53:52.137Z,98956.70
2017-12-10T11:56:19.717Z,98950.13
2017-12-10T11:58:47.308Z,98939.08
2017-12-10T12:01:14.918Z,98938.38
2017-12-10T12:03:42.519Z,98916.03
2017-12-10T12:06:10.128Z,98910.83
2017-12-10T12:08:37.723Z,98899.73
2017-12-10T12:11:05.298Z,98891.95
2017-12-10T12:13:32.918Z,98886.95
2017-12-10T12:16:00.520Z,98887.10
2017-12-10T12:18:28.131Z,98882.08
2017-12-10T12:20:55.741Z,98872.19
2017-12-10T12:23:23.316Z,98859.28
2017-12-10T12:25:50.971Z,98851.51
2017-12-10T12:28:18.560Z,98843.07
2017-12-10T12:30:46.469Z,98830.62
2017-12-10T12:33:14.086Z,98822.56
2017-12-10T12:35:41.712Z,98815.80
2017-12-10T12:38:09.678Z,98804.30
2017-12-10T12:40:37.293Z,98788.54
2017-12-10T12:43:04.917Z,98774.98
2017-12-10T12:45:32.500Z,98764.29
2017-12-10T12:48:00.106Z,98757.62
2017-12-10T12:50:27.951Z,98761.16
2017-12-10T12:52:55.570Z,98762.39
2017-12-10T12:55:23.509Z,98757.38
2017-12-10T12:57:51.236Z,98752.03
2017-12-10T13:00:18.887Z,98749.86
2017-12-10T13:02:46.522Z,98744.05
2017-12-10T13:05:14.255Z,98733.21
2017-12-10T13:07:42.151Z,98729.34
2017-12-10T13:10:09.804Z,98735.96
2017-12-10T13:12:37.412Z,98727.45
2017-12-10T13:15:05.332Z,98717.91
2017-12-10T13:17:32.958Z,98701.09
2017-12-10T13:20:00.535Z,98696.66
2017-12-10T13:22:28.240Z,98693.66
2017-12-10T13:24:55.896Z,98681.83
2017-12-10T13:27:23.472Z,98674.27
2017-12-10T13:29:51.120Z,98657.84
2017-12-10T13:32:18.724Z,98645.36
2017-12-10T13:34:46.385Z,98642.39
2017-12-10T13:37:14.400Z,98627.73
2017-12-10T13:39:42.387Z,98611.88
2017-12-10T13:42:10.127Z,98600.42
2017-12-10T13:44:37.798Z,98595.49
2017-12-10T13:47:05.473Z,98583.17
2017-12-10T13:49:33.073Z,98576.35
2017-12-10T13:52:00.672Z,98554.95
2017-12-10T13:54:28.296Z,98553.19
2017-12-10T13:56:55.896Z,98542.11
2017-12-10T13:59:24.498Z,98537.42
2017-12-10T14:01:52.173Z,98526.94
2017-12-10T14:04:20.128Z,98518.20
2017-12-10T14:06:47.773Z,98508.30
2017-12-10T14:09:15.434Z,98498.95
2017-12-10T14:11:43.013Z,98485.33
2017-12-10T14:14:10.641Z,98481.09
2017-12-10T14:16:38.270Z,98487.62
2017-12-10T14:19:06.201Z,98489.12
2017-12-10T14:21:33.799Z,98481.64
2017-12-10T14:24:01.389Z,98465.70
2017-12-10T14:26:29.006Z,98454.24
2017-12-10T14:28:56.744Z,98465.20
2017-12-10T14:31:24.408Z,98453.61
2017-12-10T14:33:51.987Z,98444.16
2017-12-10T14:36:19.614Z,98450.47
2017-12-10T14:38:47.252Z,98450.08
2017-12-10T14:41:14.900Z,98448.27
2017-12-10T14:43:42.525Z,98442.56
2017-12-10T14:46:10.101Z,98445.41
2017-12-10T14:48:37.680Z,98441.75
2017-12-10T14:51:05.296Z,98431.33
2017-12-10T14:53:32.961Z,98428.83
2017-12-10T14:56:00.623Z,98437.41
2017-12-10T14:58:28.203Z,98443.23
2017-12-10T15:00:55.837Z,98439.33
2017-12-10T15:03:23.503Z,98443.89
2017-12-10T15:05:51.145Z,98446.17
2017-12-10T15:08:18.838Z,98451.50
2017-12-10T15:10:46.483Z,98446.67
2017-12-10T15:13:14.056Z,98449.80
2017-12-10T15:15:41.943Z,98450.45
2017-12-10T15:18:09.580Z,98448.52
2017-12-10T15:20:37.849Z,98427.38
2017-12-10T15:23:05.560Z,98406.29
2017-12-10T15:25:33.168Z,98379.09
2017-12-10T15:28:00.835Z,98367.09
2017-12-10T15:30:28.501Z,98362.42
2017-12-10T15:32:56.221Z,98367.92
2017-12-10T15:35:23.897Z,98352.13
2017-12-10T15:37:51.533Z,98342.02
2017-12-10T15:40:19.145Z,98331.64
2017-12-10T15:42:46.757Z,98309.98
2017-12-10T15:45:14.375Z,98303.73
2017-12-10T15:47:42.036Z,98294.79
2017-12-10T15:50:09.942Z,98296.70
2017-12-10T15:52:37.558Z,98290.98
2017-12-10T15:55:05.140Z,98296.27
2017-12-10T15:57:32.752Z,98301.65
2017-12-10T16:00:01.669Z,98294.02
2017-12-10T16:02:29.245Z,98295.25
2017-12-10T16:04:57.151Z,98309.23
2017-12-10T16:09:58.645Z,98323.45
2017-12-10T16:12:26.229Z,98330.42
2017-12-10T16:14:54.039Z,98337.13
2017-12-10T16:17:21.657Z,98336.72
2017-12-10T16:19:49.520Z,98333.05
2017-12-10T16:22:17.141Z,98337.37
2017-12-10T16:24:44.744Z,98341.39
2017-12-10T16:27:12.540Z,98334.27
2017-12-10T16:29:40.555Z,98320.38
2017-12-10T16:32:08.138Z,98314.24
2017-12-10T16:34:35.789Z,98295.74
2017-12-10T16:37:03.432Z,98286.73
2017-12-10T16:39:31.405Z,98281.30
2017-12-10T16:41:59.004Z,98277.63
2017-12-10T16:44:26.936Z,98270.97
2017-12-10T16:46:54.902Z,98261.38
2017-12-10T16:49:22.489Z,98263.45
2017-12-10T16:51:50.060Z,98277.10
2017-12-10T16:54:17.710Z,98259.91
2017-12-10T16:56:45.289Z,98258.89
2017-12-10T16:59:12.936Z,98245.83
2017-12-10T17:01:40.512Z,98243.13
2017-12-10T17:04:08.258Z,98226.14
2017-12-10T17:06:35.866Z,98222.09
2017-12-10T17:09:03.468Z,98215.46
2017-12-10T17:11:31.112Z,98202.88
2017-12-10T17:13:58.700Z,98196.98
2017-12-10T17:16:26.294Z,98194.46
2017-12-10T17:18:53.939Z,98174.19
2017-12-10T17:21:21.600Z,98166.16
2017-12-10T17:23:49.229Z,98160.41
2017-12-10T17:26:16.837Z,98160.84
2017-12-10T17:28:44.470Z,98149.13
2017-12-10T17:31:12.088Z,98148.83
2017-12-10T17:33:39.696Z,98139.25
2017-12-10T17:36:07.351Z,98132.64
2017-12-10T17:38:35.014Z,98124.10
2017-12-10T17:41:02.593Z,98110.81
2017-12-10T17:43:30.216Z,98102.95
2017-12-10T17:45:57.900Z,98100.05
2017-12-10T17:48:25.551Z,98080.88
2017-12-10T17:50:53.132Z,98075.16
2017-12-10T17:53:20.716Z,98064.80
2017-12-10T17:55:48.359Z,98056.28
2017-12-10T17:58:15.944Z,98050.02
2017-12-10T18:00:43.561Z,98043.96
2017-12-10T18:03:11.231Z,98051.12
2017-12-10T18:05:38.821Z,98034.85
2017-12-10T18:08:06.453Z,98031.42
2017-12-10T18:10:34.036Z,98029.01
2017-12-10T18:13:01.674Z,98028.89
2017-12-10T18:15:29.277Z,98021.52
2017-12-10T18:17:56.866Z,98029.01
2017-12-10T18:20:24.495Z,98016.27
2017-12-10T18:22:52.114Z,98019.28
2017-12-10T18:25:19.757Z,98020.95
2017-12-10T18:27:47.364Z,98018.23
2017-12-10T18:30:15.603Z,98009.09
2017-12-10T18:32:43.231Z,98003.02
2017-12-10T18:35:10.833Z,98001.91
2017-12-10T18:37:38.495Z,97992.26
2017-12-10T18:40:06.380Z,97985.16
2017-12-10T18:42:33.965Z,97979.16
2017-12-10T18:45:01.710Z,97986.03
2017-12-10T18:47:29.297Z,97986.88
2017-12-10T18:49:56.929Z,97988.86
2017-12-10T18:52:24.984Z,97982.41
2017-12-10T18:54:52.570Z,97971.69
2017-12-10T18:57:20.200Z,97976.38
2017-12-10T18:59:47.786Z,97971.13
2017-12-10T19:02:17.650Z,97966.29
2017-12-10T19:04:45.578Z,97963.19
2017-12-10T19:07:13.187Z,97953.70
2017-12-10T19:09:40.913Z,97944.19
2017-12-10T19:12:08.537Z,97946.73
2017-12-10T19:14:36.190Z,97937.14
2017-12-10T19:17:03.797Z,97937.05
2017-12-10T19:19:31.652Z,97925.44
2017-12-10T19:21:59.722Z,97928.20
2017-12-10T19:24:27.386Z,97919.06
2017-12-10T19:26:55.014Z,97915.19
2017-12-10T19:29:22.608Z,97912.34
2017-12-10T19:31:50.234Z,97906.83
2017-12-10T19:34:17.874Z,97907.53
2017-12-10T19:36:45.460Z,97906.45
2017-12-10T19:39:13.368Z,97899.23
2017-12-10T19:41:41.948Z,97898.50
2017-12-10T19:44:09.569Z,97902.52
2017-12-10T19:46:37.438Z,97897.42
2017-12-10T19:49:05.062Z,97900.57
2017-12-10T19:51:32.700Z,97899.41
2017-12-10T19:54:00.310Z,97898.50
2017-12-10T19:56:27.964Z,97891.77
2017-12-10T19:58:55.562Z,97898.47
2017-12-10T20:01:23.472Z,97898.27
2017-12-10T20:03:51.073Z,97893.27
2017-12-10T20:06:18.698Z,97886.62
2017-12-10T20:08:46.543Z,97893.52
2017-12-10T20:11:14.162Z,97893.09
2017-12-10T20:13:42.087Z,97887.38
2017-12-10T20:16:09.956Z,97893.00
2017-12-10T20:18:37.820Z,97887.61
2017-12-10T20:21:05.463Z,97886.39
2017-12-10T20:23:33.084Z,97880.33
2017-12-10T20:26:00.687Z,97875.14
2017-12-10T20:28:28.349Z,97884.23
2017-12-10T20:30:55.976Z,97882.02
2017-12-10T20:33:23.899Z,97882.86
2017-12-10T20:35:51.520Z,97870.16
2017-12-10T20:38:19.117Z,97865.80
2017-12-10T20:40:46.751Z,97866.81
2017-12-10T20:43:14.355Z,97868.20
2017-12-10T20:45:41.946Z,97866.28
2017-12-10T20:48:09.601Z,97863.28
2017-12-10T20:50:37.180Z,97859.76
2017-12-10T20:53:04.825Z,97853.98
2017-12-10T20:55:32.423Z,97851.22
2017-12-10T20:58:00.425Z,97848.78
2017-12-10T21:00:28.075Z,97840.07
2017-12-10T21:02:55.961Z,97830.52
2017-12-10T21:05:23.940Z,97829.00
2017-12-10T21:07:51.546Z,97823.35
2017-12-10T21:10:19.180Z,97816.27
2017-12-10T21:12:46.808Z,97827.38
2017-12-10T21:15:14.400Z,97817.09
2017-12-10T21:17:42.073Z,97823.05
2017-12-10T21:20:09.659Z,97827.57
2017-12-10T21:22:37.246Z,97820.84
2017-12-10T21:25:04.864Z,97801.85
2017-12-10T21:27:32.502Z,97798.44
2017-12-10T21:30:00.124Z,97812.25
2017-12-10T21:32:28.013Z,97807.06
2017-12-10T21:34:55.611Z,97807.06
2017-12-10T21:37:23.221Z,97795.03
2017-12-10T21:39:50.904Z,97800.82
2017-12-10T21:42:18.504Z,97803.27
2017-12-10T21:44:46.084Z,97796.30
2017-12-10T21:47:13.707Z,97789.34
2017-12-10T21:49:41.654Z,97782.41
2017-12-10T21:52:09.245Z,97790.23
2017-12-10T21:54:36.857Z,97772.05
2017-12-10T21:57:04.456Z,97774.63
2017-12-10T21:59:32.317Z,97773.50
2017-12-10T22:01:59.924Z,97751.64
2017-12-10T22:04:27.522Z,97756.16
2017-12-10T22:06:55.509Z,97746.13
2017-12-10T22:09:23.379Z,97738.34
2017-12-10T22:11:50.955Z,97735.23
2017-12-10T22:14:18.556Z,97735.23
2017-12-10T22:16:46.158Z,97739.22
2017-12-10T22:19:14.127Z,97733.70
2017-12-10T22:21:41.702Z,97728.20
2017-12-10T22:24:09.286Z,97731.49
2017-12-10T22:26:37.217Z,97727.83
2017-12-10T22:29:04.795Z,97723.23
2017-12-10T22:31:32.421Z,97721.87
2017-12-10T22:34:00.013Z,97726.76
2017-12-10T22:36:27.600Z,97725.09
2017-12-10T22:38:55.537Z,97726.48
2017-12-10T22:41:23.145Z,97719.52
2017-12-10T22:43:50.764Z,97718.21
2017-12-10T22:46:18.351Z,97715.96
2017-12-10T22:48:45.950Z,97706.01
2017-12-10T22:51:13.544Z,97705.48
2017-12-10T22:53:41.126Z,97718.91
2017-12-10T22:56:08.789Z,97708.83
2017-12-10T22:58:36.392Z,97706.66
2017-12-10T23:01:03.976Z,97699.28
2017-12-10T23:03:31.575Z,97687.47
2017-12-10T23:05:59.162Z,97693.81
2017-12-10T23:08:26.788Z,97684.03
2017-12-10T23:10:54.637Z,97677.16
2017-12-10T23:13:34.077Z,97678.20
2017-12-10T23:16:01.679Z,97674.00
2017-12-10T23:18:29.282Z,97670.52
2017-12-10T23:20:56.943Z,97667.75
2017-12-10T23:23:24.516Z,97668.61
2017-12-10T23:25:52.171Z,97674.53
2017-12-10T23:28:19.757Z,97673.31
2017-12-10T23:30:47.335Z,97673.86
2017-12-10T23:33:14.948Z,97663.91
2017-12-10T23:35:42.588Z,97660.70
2017-12-10T23:38:10.204Z,97654.49
2017-12-10T23:40:37.801Z,97650.38
2017-12-10T23:43:06.244Z,97642.05
2017-12-10T23:45:33.880Z,97640.52
2017-12-10T23:48:01.468Z,97633.28
2017-12-10T23:50:29.431Z,97634.60
2017-12-10T23:52:57.027Z,97638.66
2017-12-10T23:55:24.619Z,97633.33
2017-12-10T23:57:52.229Z,97628.80
